Time;durP1;ratioP1;P1;durP2;ratioP2;P2;SDS_P1;SDS_P2;PMS_P1;PMS_P2;Temp;Humidity;BMP_temperature;BMP_pressure;BME280_temperature;BME280_humidity;BME280_pressure;Samples;Min_cycle;Max_cycle;Signal;HPM_P1;HPM_P2
2021/12/10 00:04:09;;;;;;;111.57;31.63;;;;;;;;;;10250439;28;20041;-60
2021/12/10 00:09:10;;;;;;;126.80;28.33;;;;;;;;;;10256734;28;20063;-59
2021/12/10 00:14:09;;;;;;;128.07;26.33;;;;;;;;;;10250085;28;20080;-59
2021/12/10 00:19:21;;;;;;;112.18;25.40;;;;;;;;;;10246875;28;20069;-60
2021/12/10 00:24:25;;;;;;;72.28;23.92;;;;;;;;;;10245922;28;20069;-59
2021/12/10 00:29:23;;;;;;;99.15;27.20;;;;;;;;;;10247259;28;20068;-59
2021/12/10 00:34:27;;;;;;;111.82;25.42;;;;;;;;;;10246478;28;20111;-58
2021/12/10 00:39:29;;;;;;;122.00;26.95;;;;;;;;;;10250693;28;20422;-59
2021/12/10 00:44:28;;;;;;;100.15;27.27;;;;;;;;;;10245099;28;20514;-60
2021/12/10 00:49:26;;;;;;;75.03;22.85;;;;;;;;;;10248175;28;20533;-59
2021/12/10 00:54:25;;;;;;;83.30;22.98;;;;;;;;;;10245827;28;20482;-59
2021/12/10 00:59:24;;;;;;;72.28;22.67;;;;;;;;;;10250414;28;20069;-60
2021/12/10 01:04:25;;;;;;;111.50;23.58;;;;;;;;;;10245233;28;20174;-60
2021/12/10 01:09:25;;;;;;;90.07;20.30;;;;;;;;;;10246654;28;20111;-59
2021/12/10 01:14:37;;;;;;;57.75;21.35;;;;;;;;;;10243737;28;20084;-59
2021/12/10 01:25:12;;;;;;;53.15;19.55;;;;;;;;;;10151323;28;20077;-59
2021/12/10 01:30:15;;;;;;;57.08;20.45;;;;;;;;;;10243330;28;20076;-60
2021/12/10 01:35:15;;;;;;;42.95;18.70;;;;;;;;;;10244746;28;20073;-60
2021/12/10 01:40:13;;;;;;;38.97;19.27;;;;;;;;;;10246051;28;20050;-59
2021/12/10 01:45:19;;;;;;;33.58;17.80;;;;;;;;;;10248254;28;20072;-60
2021/12/10 01:50:17;;;;;;;38.10;20.58;;;;;;;;;;10241813;28;20084;-60
2021/12/10 01:55:20;;;;;;;39.13;19.23;;;;;;;;;;10244555;28;20081;-60
2021/12/10 02:00:21;;;;;;;40.72;18.58;;;;;;;;;;10247202;28;20085;-60
2021/12/10 02:05:20;;;;;;;45.72;18.15;;;;;;;;;;10262710;28;20052;-58
2021/12/10 02:10:21;;;;;;;38.08;16.40;;;;;;;;;;10235967;28;20072;-58
2021/12/10 02:15:21;;;;;;;45.92;19.30;;;;;;;;;;10239131;28;20069;-59
2021/12/10 02:20:22;;;;;;;65.72;20.42;;;;;;;;;;10244268;28;20108;-59
2021/12/10 02:25:23;;;;;;;52.83;20.40;;;;;;;;;;10241769;28;20058;-58
2021/12/10 02:30:22;;;;;;;91.70;22.65;;;;;;;;;;10236902;28;20521;-58
2021/12/10 02:35:21;;;;;;;84.82;19.17;;;;;;;;;;10244428;28;20096;-58
2021/12/10 02:40:20;;;;;;;44.28;18.00;;;;;;;;;;10244498;28;20095;-58
2021/12/10 02:45:21;;;;;;;30.05;16.25;;;;;;;;;;10237102;28;20084;-58
2021/12/10 02:50:21;;;;;;;78.20;18.48;;;;;;;;;;10238660;28;20091;-58
2021/12/10 02:55:20;;;;;;;68.53;20.67;;;;;;;;;;10240430;28;20081;-58
2021/12/10 03:00:22;;;;;;;56.85;24.63;;;;;;;;;;10238876;28;20065;-59
2021/12/10 03:05:21;;;;;;;62.15;20.17;;;;;;;;;;10240399;28;20061;-59
2021/12/10 03:10:21;;;;;;;62.03;21.02;;;;;;;;;;10246017;28;20092;-59
2021/12/10 03:15:22;;;;;;;58.20;20.10;;;;;;;;;;10242438;28;20119;-59
2021/12/10 03:20:22;;;;;;;65.28;19.33;;;;;;;;;;10247125;28;20122;-59
2021/12/10 03:25:21;;;;;;;59.88;19.35;;;;;;;;;;10241174;28;20487;-59
2021/12/10 03:30:23;;;;;;;46.38;19.73;;;;;;;;;;10238007;28;20041;-59
2021/12/10 03:35:25;;;;;;;55.42;20.35;;;;;;;;;;10240479;28;20076;-60
2021/12/10 03:40:23;;;;;;;31.60;17.88;;;;;;;;;;10241692;28;20072;-59
2021/12/10 03:45:23;;;;;;;57.03;21.83;;;;;;;;;;10242214;28;20482;-60
2021/12/10 03:50:25;;;;;;;54.40;23.27;;;;;;;;;;10244953;28;20117;-60
2021/12/10 03:55:24;;;;;;;64.60;22.50;;;;;;;;;;10250720;28;20068;-59
2021/12/10 04:00:25;;;;;;;59.97;21.38;;;;;;;;;;10249307;28;20061;-59
2021/12/10 04:05:23;;;;;;;48.17;19.73;;;;;;;;;;10249810;28;20064;-59
2021/12/10 04:10:22;;;;;;;63.42;20.48;;;;;;;;;;10245203;28;20100;-59
2021/12/10 04:15:22;;;;;;;46.80;25.33;;;;;;;;;;10249727;28;20081;-59
2021/12/10 04:20:24;;;;;;;64.72;24.42;;;;;;;;;;10252746;28;20064;-59
2021/12/10 04:25:24;;;;;;;66.82;23.55;;;;;;;;;;10245714;28;20072;-59
2021/12/10 04:30:23;;;;;;;87.68;24.35;;;;;;;;;;10248597;28;20069;-59
2021/12/10 04:35:23;;;;;;;53.45;32.92;;;;;;;;;;10246258;28;20529;-59
2021/12/10 04:40:22;;;;;;;43.78;25.98;;;;;;;;;;10243941;28;20049;-59
2021/12/10 04:45:21;;;;;;;49.75;31.63;;;;;;;;;;10249303;28;20077;-59
2021/12/10 04:50:20;;;;;;;89.07;42.72;;;;;;;;;;10242938;28;20084;-58
2021/12/10 04:55:20;;;;;;;47.17;28.70;;;;;;;;;;10261502;28;20076;-60
2021/12/10 05:00:20;;;;;;;83.55;42.15;;;;;;;;;;10247422;28;20068;-59
2021/12/10 05:05:18;;;;;;;50.53;24.40;;;;;;;;;;10253266;28;20081;-59
2021/12/10 05:10:18;;;;;;;31.45;20.77;;;;;;;;;;10249201;28;20077;-58
2021/12/10 05:15:19;;;;;;;32.75;23.08;;;;;;;;;;10246653;28;20089;-57
2021/12/10 05:20:19;;;;;;;64.20;35.72;;;;;;;;;;10247544;28;20502;-59
2021/12/10 05:25:19;;;;;;;67.80;39.15;;;;;;;;;;10247143;28;20084;-53
2021/12/10 05:30:20;;;;;;;44.75;30.42;;;;;;;;;;10249762;28;20079;-58
2021/12/10 05:35:18;;;;;;;48.97;24.08;;;;;;;;;;10249190;28;20088;-59
2021/12/10 05:40:17;;;;;;;55.50;23.23;;;;;;;;;;10252283;28;20545;-59
2021/12/10 05:45:17;;;;;;;56.95;23.55;;;;;;;;;;10245014;28;20068;-58
2021/12/10 05:50:20;;;;;;;164.88;31.88;;;;;;;;;;10245145;28;20436;-58
2021/12/10 05:55:18;;;;;;;128.65;29.52;;;;;;;;;;10246626;28;20174;-59
2021/12/10 06:00:18;;;;;;;172.15;31.42;;;;;;;;;;10244110;28;20065;-57
2021/12/10 06:05:18;;;;;;;136.10;27.52;;;;;;;;;;10244183;28;20520;-59
2021/12/10 06:10:17;;;;;;;240.55;34.22;;;;;;;;;;10236778;28;20064;-59
2021/12/10 06:15:17;;;;;;;117.82;28.98;;;;;;;;;;10235387;28;20099;-59
2021/12/10 06:20:17;;;;;;;184.82;29.05;;;;;;;;;;10240105;28;20060;-59
2021/12/10 06:25:17;;;;;;;114.85;29.60;;;;;;;;;;10234338;28;20168;-59
2021/12/10 06:30:18;;;;;;;237.07;34.13;;;;;;;;;;10236988;28;20084;-59
2021/12/10 06:35:17;;;;;;;114.30;27.55;;;;;;;;;;10235673;28;20080;-60
2021/12/10 06:40:18;;;;;;;83.30;27.42;;;;;;;;;;10237807;28;20065;-58
2021/12/10 06:45:18;;;;;;;128.13;28.88;;;;;;;;;;10234850;28;20083;-59
2021/12/10 06:50:17;;;;;;;96.72;25.48;;;;;;;;;;10236149;28;20072;-59
2021/12/10 06:55:17;;;;;;;206.90;31.63;;;;;;;;;;10240352;28;20719;-58
2021/12/10 07:00:18;;;;;;;186.98;29.45;;;;;;;;;;10241663;28;20159;-59
2021/12/10 07:05:16;;;;;;;119.38;28.05;;;;;;;;;;10246954;28;20080;-58
2021/12/10 07:10:15;;;;;;;234.50;35.35;;;;;;;;;;10240900;28;20091;-58
2021/12/10 07:15:16;;;;;;;173.27;33.38;;;;;;;;;;10248712;28;20121;-58
2021/12/10 07:20:18;;;;;;;271.35;34.38;;;;;;;;;;10236774;28;20073;-59
2021/12/10 07:25:16;;;;;;;167.02;30.25;;;;;;;;;;10240363;28;20095;-59
2021/12/10 07:30:17;;;;;;;211.23;37.08;;;;;;;;;;10237866;28;20094;-59
2021/12/10 07:35:15;;;;;;;183.45;35.08;;;;;;;;;;10236000;28;20419;-59
2021/12/10 07:40:14;;;;;;;170.18;33.25;;;;;;;;;;10238037;28;20550;-58
2021/12/10 07:45:13;;;;;;;154.68;33.92;;;;;;;;;;10237623;28;20100;-58
2021/12/10 07:50:14;;;;;;;189.85;35.42;;;;;;;;;;10241974;28;20491;-59
2021/12/10 07:55:14;;;;;;;269.08;35.80;;;;;;;;;;10244356;28;20073;-59
2021/12/10 08:00:14;;;;;;;218.75;34.33;;;;;;;;;;10241192;28;20038;-59
2021/12/10 08:05:15;;;;;;;223.07;44.75;;;;;;;;;;10240913;28;20072;-59
2021/12/10 08:10:14;;;;;;;179.18;33.22;;;;;;;;;;10242651;28;20053;-58
2021/12/10 08:15:12;;;;;;;91.85;34.78;;;;;;;;;;10241089;28;20100;-59
2021/12/10 08:20:13;;;;;;;79.75;32.85;;;;;;;;;;10241600;28;20033;-59
2021/12/10 08:25:13;;;;;;;55.10;27.70;;;;;;;;;;10246210;28;20084;-58
2021/12/10 08:30:12;;;;;;;56.38;29.33;;;;;;;;;;10240550;28;20180;-58
2021/12/10 08:35:12;;;;;;;45.13;27.23;;;;;;;;;;10240072;28;20110;-58
2021/12/10 08:40:12;;;;;;;40.65;27.67;;;;;;;;;;10237241;28;20081;-58
2021/12/10 08:45:12;;;;;;;63.25;40.15;;;;;;;;;;10241971;28;20049;-58
2021/12/10 08:50:10;;;;;;;39.35;25.08;;;;;;;;;;10243584;28;20073;-58
2021/12/10 08:55:10;;;;;;;34.47;23.45;;;;;;;;;;10238975;28;20427;-59
2021/12/10 09:00:09;;;;;;;31.55;21.15;;;;;;;;;;10238609;28;20113;-58
2021/12/10 09:05:09;;;;;;;39.42;26.17;;;;;;;;;;10244333;28;20065;-59
2021/12/10 09:10:09;;;;;;;39.17;28.67;;;;;;;;;;10238894;28;20095;-59
2021/12/10 09:15:08;;;;;;;31.40;22.23;;;;;;;;;;10240465;28;20099;-58
2021/12/10 09:20:09;;;;;;;25.27;20.08;;;;;;;;;;10240765;28;20065;-59
2021/12/10 09:25:09;;;;;;;25.45;19.98;;;;;;;;;;10235510;28;20164;-59
2021/12/10 09:30:08;;;;;;;21.65;17.30;;;;;;;;;;10233554;28;20360;-59
2021/12/10 09:35:10;;;;;;;69.82;40.95;;;;;;;;;;10239106;28;20079;-59
2021/12/10 09:40:18;;;;;;;55.50;32.78;;;;;;;;;;10238977;28;20199;-59
2021/12/10 09:45:17;;;;;;;26.50;21.55;;;;;;;;;;10234106;28;20089;-58
2021/12/10 09:50:16;;;;;;;16.08;12.77;;;;;;;;;;10233696;28;20086;-59
2021/12/10 09:55:17;;;;;;;17.70;13.48;;;;;;;;;;10233658;28;20072;-59
2021/12/10 10:00:19;;;;;;;19.10;15.13;;;;;;;;;;10234645;28;20095;-59
2021/12/10 10:05:18;;;;;;;18.50;13.07;;;;;;;;;;10239758;28;20068;-59
2021/12/10 10:10:18;;;;;;;42.28;25.48;;;;;;;;;;10232075;28;20129;-58
2021/12/10 10:15:19;;;;;;;49.03;29.20;;;;;;;;;;10233988;28;20132;-58
2021/12/10 10:20:23;;;;;;;40.17;31.63;;;;;;;;;;10234837;28;20159;-59
2021/12/10 10:25:24;;;;;;;26.63;19.00;;;;;;;;;;10233533;28;20117;-58
2021/12/10 10:30:25;;;;;;;21.60;15.68;;;;;;;;;;10236958;28;20419;-58
2021/12/10 10:35:27;;;;;;;17.38;13.48;;;;;;;;;;10234639;28;20163;-59
2021/12/10 10:40:28;;;;;;;14.70;12.10;;;;;;;;;;10238415;28;20129;-58
2021/12/10 10:45:29;;;;;;;24.70;17.63;;;;;;;;;;10232087;28;20076;-58
2021/12/10 10:50:29;;;;;;;23.73;20.65;;;;;;;;;;10233482;28;20084;-58
2021/12/10 10:55:30;;;;;;;28.58;19.52;;;;;;;;;;10237685;28;20087;-58
2021/12/10 11:00:35;;;;;;;47.42;29.65;;;;;;;;;;10233823;28;20117;-58
2021/12/10 11:05:46;;;;;;;46.42;28.80;;;;;;;;;;10233756;28;20170;-58
2021/12/10 11:10:45;;;;;;;20.08;14.80;;;;;;;;;;10231600;28;20076;-58
2021/12/10 11:15:55;;;;;;;18.10;14.73;;;;;;;;;;10230776;28;20081;-59
2021/12/10 11:20:53;;;;;;;25.48;18.83;;;;;;;;;;10232293;28;20124;-57
2021/12/10 11:25:55;;;;;;;12.13;10.15;;;;;;;;;;10232691;28;20482;-59
2021/12/10 11:30:58;;;;;;;24.70;16.90;;;;;;;;;;10231333;28;20065;-58
2021/12/10 11:35:58;;;;;;;51.10;30.25;;;;;;;;;;10234257;28;20072;-59
2021/12/10 11:40:59;;;;;;;55.72;33.05;;;;;;;;;;10231647;28;20131;-58
2021/12/10 11:46:25;;;;;;;48.45;32.55;;;;;;;;;;10233855;28;20167;-60
2021/12/10 11:51:26;;;;;;;46.03;28.92;;;;;;;;;;10232512;28;20067;-58
2021/12/10 11:56:27;;;;;;;77.63;43.80;;;;;;;;;;10233042;28;20101;-59
2021/12/10 12:01:25;;;;;;;139.38;71.93;;;;;;;;;;10232063;28;20069;-59
2021/12/10 12:06:24;;;;;;;251.38;126.78;;;;;;;;;;10235254;28;20455;-59
2021/12/10 12:11:22;;;;;;;257.00;115.10;;;;;;;;;;10234674;28;20422;-59
2021/12/10 12:16:26;;;;;;;103.22;55.80;;;;;;;;;;10244483;28;20140;-59
2021/12/10 12:26:38;;;;;;;146.82;90.03;;;;;;;;;;10221292;28;20467;-60
2021/12/10 12:31:58;;;;;;;62.40;38.53;;;;;;;;;;10239694;28;20057;-58
2021/12/10 12:37:00;;;;;;;53.65;40.72;;;;;;;;;;10242465;28;20212;-58
2021/12/10 12:42:20;;;;;;;45.80;36.00;;;;;;;;;;10245391;28;20068;-59
2021/12/10 12:47:21;;;;;;;51.08;38.60;;;;;;;;;;10249465;28;20072;-58
2021/12/10 12:52:21;;;;;;;69.93;46.80;;;;;;;;;;10246516;28;20079;-58
2021/12/10 12:57:20;;;;;;;61.03;45.92;;;;;;;;;;10244633;28;20218;-57
2021/12/10 13:02:42;;;;;;;60.80;42.15;;;;;;;;;;10245681;28;20057;-58
2021/12/10 13:07:41;;;;;;;50.10;36.25;;;;;;;;;;10244784;28;20188;-58
2021/12/10 13:12:46;;;;;;;76.60;54.90;;;;;;;;;;10242028;28;20490;-59
2021/12/10 13:17:46;;;;;;;54.47;41.50;;;;;;;;;;10240008;28;20082;-59
2021/12/10 13:22:45;;;;;;;67.82;46.92;;;;;;;;;;10242029;28;20076;-59
2021/12/10 13:27:44;;;;;;;46.70;36.15;;;;;;;;;;10245611;28;20095;-59
2021/12/10 13:32:43;;;;;;;36.67;27.90;;;;;;;;;;10243270;28;20076;-59
2021/12/10 13:37:45;;;;;;;43.97;32.90;;;;;;;;;;10245289;28;20072;-59
2021/12/10 13:42:43;;;;;;;58.72;45.33;;;;;;;;;;10243017;28;20577;-58
2021/12/10 13:47:50;;;;;;;50.95;37.03;;;;;;;;;;10245065;28;20167;-58
2021/12/10 13:52:53;;;;;;;63.45;46.05;;;;;;;;;;10245267;28;20076;-58
2021/12/10 13:58:12;;;;;;;53.95;39.90;;;;;;;;;;10238939;28;20084;-59
2021/12/10 14:03:14;;;;;;;48.10;40.05;;;;;;;;;;10241393;28;20343;-59
2021/12/10 14:08:16;;;;;;;51.25;41.55;;;;;;;;;;10240538;28;20041;-60
2021/12/10 14:13:26;;;;;;;41.95;31.80;;;;;;;;;;10246530;28;20076;-58
2021/12/10 14:18:26;;;;;;;51.85;35.67;;;;;;;;;;10239806;28;20080;-59
2021/12/10 14:23:47;;;;;;;43.97;34.53;;;;;;;;;;10240547;28;20073;-58
2021/12/10 14:29:11;;;;;;;77.97;60.30;;;;;;;;;;10237331;28;20092;-59
2021/12/10 14:34:29;;;;;;;98.38;64.28;;;;;;;;;;10240714;28;20088;-59
2021/12/10 14:39:29;;;;;;;135.93;77.88;;;;;;;;;;10237212;28;20068;-58
2021/12/10 14:44:48;;;;;;;63.80;52.03;;;;;;;;;;10236009;28;20486;-58
2021/12/10 14:49:47;;;;;;;246.40;134.20;;;;;;;;;;10239096;28;20067;-59
2021/12/10 14:55:09;;;;;;;137.00;98.35;;;;;;;;;;10239457;28;20564;-58
2021/12/10 15:00:36;;;;;;;169.88;109.35;;;;;;;;;;10240231;28;20104;-58
2021/12/10 15:05:56;;;;;;;80.65;57.25;;;;;;;;;;10235175;28;20080;-59
2021/12/10 15:11:21;;;;;;;92.22;66.75;;;;;;;;;;10241168;28;20427;-59
2021/12/10 15:16:41;;;;;;;73.43;53.30;;;;;;;;;;10236477;28;20089;-58
2021/12/10 15:21:48;;;;;;;69.38;52.30;;;;;;;;;;10234164;28;20080;-58
2021/12/10 15:26:59;;;;;;;53.30;42.53;;;;;;;;;;10234025;28;20509;-58
2021/12/10 15:31:59;;;;;;;62.08;46.67;;;;;;;;;;10233909;28;20392;-58
2021/12/10 15:36:59;;;;;;;54.60;41.58;;;;;;;;;;10234890;28;20084;-58
2021/12/10 15:42:05;;;;;;;56.80;41.65;;;;;;;;;;10237497;28;20093;-58
2021/12/10 15:47:04;;;;;;;56.58;40.15;;;;;;;;;;10244587;28;20088;-58
2021/12/10 15:52:05;;;;;;;47.35;34.25;;;;;;;;;;10248586;28;20078;-59
2021/12/10 15:57:06;;;;;;;103.63;72.82;;;;;;;;;;10245198;28;20076;-58
2021/12/10 16:02:06;;;;;;;144.13;96.28;;;;;;;;;;10244570;28;20073;-58
2021/12/10 16:07:07;;;;;;;160.13;101.95;;;;;;;;;;10245453;28;20084;-58
2021/12/10 16:12:07;;;;;;;88.55;63.08;;;;;;;;;;10246636;28;20100;-59
2021/12/10 16:17:07;;;;;;;74.30;49.88;;;;;;;;;;10248299;28;20089;-59
2021/12/10 16:22:08;;;;;;;160.07;115.82;;;;;;;;;;10249062;28;20069;-59
2021/12/10 16:27:10;;;;;;;122.90;91.57;;;;;;;;;;10248091;28;20076;-60
2021/12/10 16:32:11;;;;;;;128.07;91.00;;;;;;;;;;10247024;28;20703;-59
2021/12/10 16:37:11;;;;;;;87.00;61.03;;;;;;;;;;10248622;28;20081;-59
2021/12/10 16:42:11;;;;;;;71.72;52.25;;;;;;;;;;10245669;28;20528;-60
2021/12/10 16:47:11;;;;;;;69.90;50.70;;;;;;;;;;10244843;28;20064;-59
2021/12/10 16:52:12;;;;;;;65.18;44.10;;;;;;;;;;10250102;28;20083;-60
2021/12/10 16:57:35;;;;;;;39.30;32.40;;;;;;;;;;10243870;28;20432;-59
2021/12/10 17:02:33;;;;;;;70.90;49.63;;;;;;;;;;10248834;28;20077;-60
2021/12/10 17:07:34;;;;;;;64.40;45.35;;;;;;;;;;10248537;28;20128;-59
2021/12/10 17:12:33;;;;;;;45.92;37.83;;;;;;;;;;10247113;28;20076;-58
2021/12/10 17:17:33;;;;;;;97.93;70.25;;;;;;;;;;10246236;28;20068;-60
2021/12/10 17:22:32;;;;;;;70.63;48.20;;;;;;;;;;10243801;28;20075;-59
2021/12/10 17:27:33;;;;;;;131.02;90.38;;;;;;;;;;10245489;28;20068;-59
2021/12/10 17:32:33;;;;;;;140.35;90.85;;;;;;;;;;10240223;28;20079;-58
2021/12/10 17:37:34;;;;;;;79.07;53.97;;;;;;;;;;10246342;28;20067;-58
2021/12/10 17:42:32;;;;;;;119.45;73.25;;;;;;;;;;10244681;28;20064;-58
2021/12/10 17:47:34;;;;;;;46.22;33.17;;;;;;;;;;10238704;28;20396;-58
2021/12/10 17:52:34;;;;;;;43.05;28.67;;;;;;;;;;10232593;28;20065;-56
2021/12/10 17:57:34;;;;;;;41.28;29.38;;;;;;;;;;10241247;28;20072;-57
2021/12/10 18:02:37;;;;;;;183.07;103.43;;;;;;;;;;10238915;28;20077;-58
2021/12/10 18:07:36;;;;;;;78.15;57.58;;;;;;;;;;10234897;28;20064;-56
2021/12/10 18:12:36;;;;;;;110.43;78.97;;;;;;;;;;10236829;28;20068;-58
2021/12/10 18:17:37;;;;;;;66.95;50.97;;;;;;;;;;10239804;28;20049;-58
2021/12/10 18:22:42;;;;;;;102.97;76.15;;;;;;;;;;10243483;28;20084;-59
2021/12/10 18:27:40;;;;;;;69.60;52.57;;;;;;;;;;10252297;28;20068;-59
2021/12/10 18:32:42;;;;;;;71.82;60.22;;;;;;;;;;10250518;28;20064;-58
2021/12/10 18:37:41;;;;;;;37.60;32.80;;;;;;;;;;10246079;28;20538;-58
2021/12/10 18:42:42;;;;;;;21.80;19.50;;;;;;;;;;10247552;28;20061;-56
2021/12/10 18:47:43;;;;;;;28.35;23.88;;;;;;;;;;10238588;28;20064;-58
2021/12/10 18:52:45;;;;;;;42.60;36.70;;;;;;;;;;10244436;28;20048;-58
2021/12/10 18:57:46;;;;;;;33.85;27.42;;;;;;;;;;10253376;28;20087;-59
2021/12/10 19:02:47;;;;;;;32.25;28.70;;;;;;;;;;10253904;28;20313;-58
2021/12/10 19:07:48;;;;;;;35.38;28.63;;;;;;;;;;10248236;28;20083;-58
2021/12/10 19:12:51;;;;;;;36.08;27.35;;;;;;;;;;10244806;28;20042;-59
2021/12/10 19:18:00;;;;;;;48.83;39.10;;;;;;;;;;10239762;28;20069;-58
2021/12/10 19:22:59;;;;;;;72.45;55.17;;;;;;;;;;10251051;28;20068;-59
2021/12/10 19:28:00;;;;;;;136.40;83.90;;;;;;;;;;10247040;28;20076;-59
2021/12/10 19:33:02;;;;;;;84.40;56.00;;;;;;;;;;10250446;28;20400;-58
2021/12/10 19:38:02;;;;;;;41.08;33.38;;;;;;;;;;10245270;28;20781;-58
2021/12/10 19:43:02;;;;;;;34.10;26.52;;;;;;;;;;10253865;28;20068;-58
2021/12/10 19:48:07;;;;;;;29.75;23.58;;;;;;;;;;10248695;28;20545;-58
2021/12/10 19:53:08;;;;;;;30.58;21.95;;;;;;;;;;10254154;28;20073;-58
2021/12/10 19:58:08;;;;;;;29.80;25.45;;;;;;;;;;10258793;28;20073;-57
2021/12/10 20:03:10;;;;;;;21.33;18.00;;;;;;;;;;10251920;28;20073;-58
2021/12/10 20:08:10;;;;;;;22.45;18.15;;;;;;;;;;10249718;28;20065;-58
2021/12/10 20:13:12;;;;;;;25.63;20.13;;;;;;;;;;10248167;28;20061;-59
2021/12/10 20:18:14;;;;;;;33.45;27.63;;;;;;;;;;10246373;28;20069;-59
2021/12/10 20:23:18;;;;;;;56.92;40.20;;;;;;;;;;10252583;28;20075;-59
2021/12/10 20:28:19;;;;;;;35.15;27.48;;;;;;;;;;10253898;28;20083;-59
2021/12/10 20:33:20;;;;;;;37.05;30.27;;;;;;;;;;10245377;28;20173;-57
2021/12/10 20:38:20;;;;;;;28.17;23.67;;;;;;;;;;10247661;28;20520;-58
2021/12/10 20:43:21;;;;;;;83.97;52.08;;;;;;;;;;10248779;28;20475;-59
2021/12/10 20:48:21;;;;;;;45.72;32.80;;;;;;;;;;10246932;28;20163;-58
2021/12/10 20:53:25;;;;;;;32.40;24.35;;;;;;;;;;10251747;28;20456;-57
2021/12/10 20:58:26;;;;;;;27.77;20.80;;;;;;;;;;10250080;28;20076;-57
2021/12/10 21:03:27;;;;;;;26.70;20.98;;;;;;;;;;10250230;28;20068;-58
2021/12/10 21:08:28;;;;;;;37.90;23.50;;;;;;;;;;10246081;28;20068;-59
2021/12/10 21:13:28;;;;;;;208.93;84.22;;;;;;;;;;10243787;28;20080;-58
2021/12/10 21:18:29;;;;;;;36.55;25.65;;;;;;;;;;10249740;28;20073;-55
2021/12/10 21:23:32;;;;;;;27.00;20.90;;;;;;;;;;10242940;28;20061;-58
2021/12/10 21:28:33;;;;;;;36.83;22.92;;;;;;;;;;10242709;28;20072;-59
2021/12/10 21:33:38;;;;;;;42.90;28.17;;;;;;;;;;10244096;28;20490;-59
2021/12/10 21:38:39;;;;;;;22.30;17.98;;;;;;;;;;10239799;28;20463;-60
2021/12/10 21:43:39;;;;;;;24.60;18.35;;;;;;;;;;10241826;28;20072;-60
2021/12/10 21:48:42;;;;;;;17.08;14.85;;;;;;;;;;10241835;28;20069;-58
2021/12/10 21:53:40;;;;;;;23.02;15.50;;;;;;;;;;10241083;28;20047;-59
2021/12/10 21:58:42;;;;;;;11.15;9.45;;;;;;;;;;10239028;28;20093;-59
2021/12/10 22:03:43;;;;;;;14.60;12.68;;;;;;;;;;10250423;28;20041;-59
2021/12/10 22:08:43;;;;;;;14.82;11.02;;;;;;;;;;10239542;28;20383;-59
2021/12/10 22:13:43;;;;;;;22.05;15.65;;;;;;;;;;10237581;28;20049;-59
2021/12/10 22:18:45;;;;;;;19.35;14.38;;;;;;;;;;10240695;28;20072;-59
2021/12/10 22:23:46;;;;;;;16.77;13.70;;;;;;;;;;10241170;28;20080;-59
2021/12/10 22:28:46;;;;;;;32.38;24.15;;;;;;;;;;10239538;28;20498;-58
2021/12/10 22:33:46;;;;;;;20.13;15.63;;;;;;;;;;10239333;28;20132;-58
2021/12/10 22:38:56;;;;;;;15.05;13.45;;;;;;;;;;10240377;28;20071;-59
2021/12/10 22:43:58;;;;;;;19.75;17.65;;;;;;;;;;10241574;28;20073;-59
2021/12/10 22:48:59;;;;;;;13.98;12.00;;;;;;;;;;10238798;28;20061;-59
2021/12/10 22:53:59;;;;;;;142.30;76.85;;;;;;;;;;10239389;28;20061;-58
2021/12/10 22:58:59;;;;;;;119.35;73.10;;;;;;;;;;10236678;28;20093;-60
2021/12/10 23:04:02;;;;;;;56.47;37.72;;;;;;;;;;10236189;28;20076;-59
2021/12/10 23:14:19;;;;;;;15.57;12.77;;;;;;;;;;10238072;28;20092;-59
2021/12/10 23:19:21;;;;;;;13.25;10.80;;;;;;;;;;10237763;28;20077;-59
2021/12/10 23:24:29;;;;;;;14.73;13.18;;;;;;;;;;10238010;28;20526;-59
2021/12/10 23:29:30;;;;;;;17.63;15.00;;;;;;;;;;10239542;28;20458;-58
2021/12/10 23:34:29;;;;;;;14.48;11.82;;;;;;;;;;10241692;28;20522;-58
2021/12/10 23:39:31;;;;;;;21.30;16.08;;;;;;;;;;10242287;28;20069;-59
2021/12/10 23:44:31;;;;;;;45.95;26.17;;;;;;;;;;10241678;28;20076;-58
2021/12/10 23:49:36;;;;;;;13.27;10.65;;;;;;;;;;10232041;28;20077;-58
2021/12/10 23:54:37;;;;;;;19.57;14.60;;;;;;;;;;10237737;28;20480;-58
2021/12/10 23:59:35;;;;;;;34.65;23.00;;;;;;;;;;10242292;28;20526;-58
